createdAt,value
2023-02-01T00:01:15.126Z,98601.63
2023-02-01T00:03:43.020Z,98604.04
2023-02-01T00:06:10.975Z,98610.45
2023-02-01T00:08:38.814Z,98608.65
2023-02-01T00:11:08.960Z,98626.70
2023-02-01T00:13:39.822Z,98657.54
2023-02-01T00:16:10.877Z,98627.02
2023-02-01T00:18:38.826Z,98629.04
2023-02-01T00:21:06.759Z,98638.60
2023-02-01T00:23:37.921Z,98648.37
2023-02-01T00:26:08.062Z,98663.52
2023-02-01T00:28:35.861Z,98647.20
2023-02-01T00:31:05.379Z,98653.55
2023-02-01T00:33:34.140Z,98652.19
2023-02-01T00:36:05.136Z,98647.53
2023-02-01T00:38:35.514Z,98635.80
2023-02-01T00:41:23.882Z,98642.27
2023-02-01T00:43:52.219Z,98631.42
2023-02-01T00:46:22.492Z,98633.91
2023-02-01T00:48:50.875Z,98638.13
2023-02-01T00:51:21.965Z,98637.95
2023-02-01T00:53:50.308Z,98638.80
2023-02-01T00:56:18.363Z,98643.71
2023-02-01T00:58:46.390Z,98642.45
2023-02-01T01:01:21.716Z,98635.90
2023-02-01T01:03:53.049Z,98642.33
2023-02-01T01:06:24.708Z,98641.08
2023-02-01T01:08:54.466Z,98632.61
2023-02-01T01:11:25.484Z,98630.40
2023-02-01T01:13:55.582Z,98628.15
2023-02-01T01:16:25.803Z,98629.04
2023-02-01T01:18:54.341Z,98633.96
2023-02-01T01:21:22.355Z,98633.64
2023-02-01T01:23:50.456Z,98623.39
2023-02-01T01:26:23.931Z,98629.59
2023-02-01T01:28:52.260Z,98633.92
2023-02-01T01:31:21.349Z,98636.73
2023-02-01T01:33:54.611Z,98638.95
2023-02-01T01:36:23.104Z,98637.96
2023-02-01T01:38:51.161Z,98641.27
2023-02-01T01:41:22.143Z,98639.39
2023-02-01T01:44:05.400Z,98643.60
2023-02-01T01:46:36.453Z,98654.50
2023-02-01T01:49:18.475Z,98645.42
2023-02-01T01:51:53.899Z,98644.42
2023-02-01T01:54:33.079Z,98639.09
2023-02-01T01:57:12.413Z,98645.19
2023-02-01T01:59:43.082Z,98644.70
2023-02-01T02:02:11.626Z,98638.12
2023-02-01T02:04:39.706Z,98645.52
2023-02-01T02:07:16.709Z,98645.33
2023-02-01T02:09:54.644Z,98642.16
2023-02-01T02:12:28.043Z,98639.14
2023-02-01T02:14:56.491Z,98641.60
2023-02-01T02:17:48.724Z,98633.95
2023-02-01T02:20:44.731Z,98634.54
2023-02-01T02:23:28.886Z,98637.58
2023-02-01T02:26:27.492Z,98642.67
2023-02-01T02:29:20.428Z,98651.98
2023-02-01T02:32:00.461Z,98649.80
2023-02-01T02:34:35.035Z,98659.24
2023-02-01T02:37:11.783Z,98650.77
2023-02-01T02:39:51.638Z,98657.08
2023-02-01T02:43:10.196Z,98643.05
2023-02-01T02:46:10.748Z,98642.91
2023-02-01T02:49:26.114Z,98652.14
2023-02-01T02:52:18.839Z,98652.95
2023-02-01T02:54:52.978Z,98653.06
2023-02-01T02:57:45.680Z,98650.61
2023-02-01T03:00:36.952Z,98646.08
2023-02-01T03:03:24.900Z,98650.48
2023-02-01T03:05:53.017Z,98641.49
2023-02-01T03:08:27.247Z,98645.72
2023-02-01T03:10:55.115Z,98649.95
2023-02-01T03:13:32.176Z,98651.63
2023-02-01T03:16:04.550Z,98651.48
2023-02-01T03:18:41.840Z,98647.33
2023-02-01T03:21:16.765Z,98638.95
2023-02-01T03:23:47.006Z,98644.64
2023-02-01T03:26:19.201Z,98640.23
2023-02-01T03:28:54.660Z,98642.11
2023-02-01T03:31:23.997Z,98632.77
2023-02-01T03:33:52.163Z,98631.54
2023-02-01T03:36:46.595Z,98630.83
2023-02-01T03:39:30.983Z,98621.55
2023-02-01T03:42:04.501Z,98633.90
2023-02-01T03:44:34.752Z,98635.67
2023-02-01T03:47:17.097Z,98634.55
2023-02-01T03:49:50.146Z,98633.73
2023-02-01T03:52:24.023Z,98638.95
2023-02-01T03:54:53.385Z,98639.16
2023-02-01T03:57:28.168Z,98642.23
2023-02-01T04:00:06.551Z,98634.16
2023-02-01T04:02:42.142Z,98627.80
2023-02-01T04:05:10.328Z,98633.91
2023-02-01T04:07:39.428Z,98634.96
2023-02-01T04:10:07.830Z,98631.23
2023-02-01T04:12:35.677Z,98628.02
2023-02-01T04:15:04.533Z,98628.29
2023-02-01T04:17:32.588Z,98628.81
2023-02-01T04:20:00.438Z,98631.92
2023-02-01T04:22:29.714Z,98621.67
2023-02-01T04:24:57.570Z,98612.66
2023-02-01T04:27:28.537Z,98619.86
2023-02-01T04:29:58.421Z,98623.83
2023-02-01T04:32:26.383Z,98618.55
2023-02-01T04:34:54.263Z,98616.57
2023-02-01T04:37:22.092Z,98613.35
2023-02-01T04:39:50.089Z,98619.49
2023-02-01T04:42:17.967Z,98622.14
2023-02-01T04:44:45.810Z,98621.02
2023-02-01T04:47:13.611Z,98620.24
2023-02-01T04:49:41.405Z,98615.14
2023-02-01T04:52:09.363Z,98615.16
2023-02-01T04:54:37.211Z,98613.60
2023-02-01T04:57:05.107Z,98610.56
2023-02-01T04:59:32.979Z,98607.98
2023-02-01T05:02:00.861Z,98605.70
2023-02-01T05:04:28.768Z,98601.39
2023-02-01T05:06:56.641Z,98600.41
2023-02-01T05:09:24.560Z,98593.12
2023-02-01T05:12:10.586Z,98588.83
2023-02-01T05:14:38.383Z,98581.27
2023-02-01T05:17:06.241Z,98580.55
2023-02-01T05:19:34.119Z,98579.48
2023-02-01T05:22:01.975Z,98584.16
2023-02-01T05:24:30.295Z,98582.38
2023-02-01T05:26:58.253Z,98581.79
2023-02-01T05:29:26.055Z,98574.02
2023-02-01T05:31:54.006Z,98577.21
2023-02-01T05:34:21.869Z,98582.29
2023-02-01T05:36:49.833Z,98581.83
2023-02-01T05:39:17.937Z,98578.27
2023-02-01T05:41:45.987Z,98570.55
2023-02-01T05:44:13.851Z,98570.44
2023-02-01T05:46:41.730Z,98565.65
2023-02-01T05:49:09.647Z,98561.55
2023-02-01T05:51:37.523Z,98565.48
2023-02-01T05:54:05.369Z,98565.98
2023-02-01T05:56:33.182Z,98566.99
2023-02-01T06:01:28.499Z,98568.97
2023-02-01T06:03:56.438Z,98570.95
2023-02-01T06:06:24.347Z,98567.72
2023-02-01T06:08:52.175Z,98569.95
2023-02-01T06:11:31.687Z,98559.69
2023-02-01T06:14:01.020Z,98563.78
2023-02-01T06:16:29.004Z,98564.27
2023-02-01T06:18:56.888Z,98568.38
2023-02-01T06:21:24.800Z,98568.83
2023-02-01T06:23:54.292Z,98568.68
2023-02-01T06:26:22.151Z,98567.15
2023-02-01T06:28:50.440Z,98568.14
2023-02-01T06:31:18.366Z,98572.36
2023-02-01T06:33:47.884Z,98577.06
2023-02-01T06:36:17.069Z,98575.51
2023-02-01T06:38:45.150Z,98575.90
2023-02-01T06:41:13.001Z,98573.89
2023-02-01T06:43:41.164Z,98568.69
2023-02-01T06:46:12.300Z,98572.95
2023-02-01T06:48:40.312Z,98574.22
2023-02-01T06:51:20.655Z,98575.75
2023-02-01T06:53:48.792Z,98579.42
2023-02-01T06:56:16.802Z,98573.48
2023-02-01T06:58:45.253Z,98574.57
2023-02-01T07:01:13.802Z,98565.20
2023-02-01T07:03:42.632Z,98560.33
2023-02-01T07:06:10.795Z,98556.42
2023-02-01T07:08:39.609Z,98559.66
2023-02-01T07:11:11.167Z,98560.48
2023-02-01T07:13:39.972Z,98558.69
2023-02-01T07:16:11.763Z,98560.41
2023-02-01T07:18:39.886Z,98565.41
2023-02-01T07:21:08.437Z,98564.27
2023-02-01T07:23:36.492Z,98564.17
2023-02-01T07:26:07.511Z,98562.54
2023-02-01T07:28:37.040Z,98558.95
2023-02-01T07:31:07.213Z,98558.04
2023-02-01T07:33:35.798Z,98557.83
2023-02-01T07:36:06.946Z,98560.83
2023-02-01T07:38:35.224Z,98557.16
2023-02-01T07:41:05.800Z,98557.20
2023-02-01T07:43:36.824Z,98555.13
2023-02-01T07:46:05.467Z,98550.78
2023-02-01T07:48:35.107Z,98552.52
2023-02-01T07:51:06.309Z,98548.34
2023-02-01T07:53:35.491Z,98542.38
2023-02-01T07:56:04.698Z,98534.70
2023-02-01T07:58:32.637Z,98535.59
2023-02-01T08:01:19.316Z,98529.66
2023-02-01T08:04:03.145Z,98530.95
2023-02-01T08:06:34.784Z,98533.75
2023-02-01T08:09:04.341Z,98529.17
2023-02-01T08:11:32.887Z,98527.19
2023-02-01T08:14:01.180Z,98539.01
2023-02-01T08:16:29.245Z,98528.45
2023-02-01T08:18:59.537Z,98534.31
2023-02-01T08:21:37.481Z,98534.27
2023-02-01T08:24:07.429Z,98540.84
2023-02-01T08:26:35.592Z,98534.97
2023-02-01T08:29:06.065Z,98534.98
2023-02-01T08:31:34.122Z,98529.99
2023-02-01T08:34:06.609Z,98524.80
2023-02-01T08:36:34.517Z,98530.07
2023-02-01T08:39:06.708Z,98536.14
2023-02-01T08:41:34.685Z,98535.92
2023-02-01T08:44:02.675Z,98530.79
2023-02-01T08:46:30.778Z,98533.84
2023-02-01T08:48:59.073Z,98532.98
2023-02-01T08:51:26.910Z,98531.30
2023-02-01T08:53:54.755Z,98525.35
2023-02-01T08:56:22.763Z,98525.54
2023-02-01T08:58:50.627Z,98527.33
2023-02-01T09:01:18.737Z,98527.26
2023-02-01T09:03:47.126Z,98528.85
2023-02-01T09:06:16.755Z,98534.13
2023-02-01T09:08:45.522Z,98524.09
2023-02-01T09:11:17.241Z,98524.21
2023-02-01T09:13:45.297Z,98520.89
2023-02-01T09:16:13.527Z,98526.42
2023-02-01T09:18:50.653Z,98524.09
2023-02-01T09:21:30.233Z,98521.62
2023-02-01T09:23:58.166Z,98517.07
2023-02-01T09:26:32.179Z,98526.21
2023-02-01T09:29:02.019Z,98524.27
2023-02-01T09:31:31.410Z,98520.73
2023-02-01T09:33:59.559Z,98524.95
2023-02-01T09:36:30.006Z,98526.25
2023-02-01T09:38:59.360Z,98516.85
2023-02-01T09:41:53.816Z,98510.29
2023-02-01T09:44:43.738Z,98505.38
2023-02-01T09:47:16.298Z,98500.76
2023-02-01T09:49:53.668Z,98495.91
2023-02-01T09:52:30.408Z,98489.80
2023-02-01T09:55:04.915Z,98492.37
2023-02-01T09:57:45.225Z,98491.84
2023-02-01T10:00:25.097Z,98485.77
2023-02-01T10:02:55.925Z,98488.48
2023-02-01T10:06:01.326Z,98483.61
2023-02-01T10:08:57.095Z,98475.10
2023-02-01T10:11:56.922Z,98466.72
2023-02-01T10:14:24.688Z,98469.69
2023-02-01T10:17:13.671Z,98464.98
2023-02-01T10:20:15.563Z,98460.00
2023-02-01T10:25:41.085Z,98450.34
2023-02-01T10:28:16.620Z,98452.48
2023-02-01T10:30:48.191Z,98439.70
2023-02-01T10:33:23.025Z,98440.98
2023-02-01T10:36:06.928Z,98429.16
2023-02-01T10:38:34.819Z,98417.42
2023-02-01T10:41:13.513Z,98425.16
2023-02-01T10:43:42.095Z,98415.82
2023-02-01T10:46:10.266Z,98418.11
2023-02-01T10:48:39.316Z,98417.81
2023-02-01T10:51:15.888Z,98425.30
2023-02-01T10:53:51.551Z,98419.41
2023-02-01T10:56:27.616Z,98419.40
2023-02-01T10:59:04.413Z,98421.10
2023-02-01T11:01:40.364Z,98408.27
2023-02-01T11:04:14.453Z,98410.02
2023-02-01T11:06:45.277Z,98415.02
2023-02-01T11:09:15.806Z,98412.88
2023-02-01T11:11:49.346Z,98405.50
2023-02-01T11:14:26.012Z,98402.65
2023-02-01T11:17:03.524Z,98396.57
2023-02-01T11:19:31.786Z,98394.19
2023-02-01T11:22:01.817Z,98389.02
2023-02-01T11:24:36.746Z,98398.89
2023-02-01T11:27:16.039Z,98398.09
2023-02-01T11:29:57.373Z,98402.06
2023-02-01T11:32:26.101Z,98401.58
2023-02-01T11:35:03.145Z,98398.56
2023-02-01T11:37:35.070Z,98389.61
2023-02-01T11:40:24.419Z,98386.75
2023-02-01T11:43:08.481Z,98385.02
2023-02-01T11:45:38.434Z,98386.53
2023-02-01T11:48:26.257Z,98388.86
2023-02-01T11:51:25.339Z,98389.79
2023-02-01T11:54:11.695Z,98396.15
2023-02-01T11:56:45.372Z,98400.02
2023-02-01T11:59:19.027Z,98404.35
2023-02-01T12:02:11.718Z,98404.30
2023-02-01T12:05:07.045Z,98398.44
2023-02-01T12:07:50.139Z,98408.41
2023-02-01T12:10:28.036Z,98402.94
2023-02-01T12:13:07.391Z,98402.72
2023-02-01T12:15:35.282Z,98401.80
2023-02-01T12:18:11.850Z,98393.54
2023-02-01T12:20:58.464Z,98401.75
2023-02-01T12:23:32.260Z,98396.14
2023-02-01T12:26:06.110Z,98398.64
2023-02-01T12:28:48.870Z,98400.69
2023-02-01T12:31:37.391Z,98404.91
2023-02-01T12:34:26.234Z,98414.52
2023-02-01T12:37:32.114Z,98409.35
2023-02-01T12:40:05.801Z,98408.57
2023-02-01T12:42:41.051Z,98415.29
2023-02-01T12:45:31.930Z,98406.64
2023-02-01T12:48:22.254Z,98412.20
2023-02-01T12:51:00.665Z,98418.39
2023-02-01T12:53:47.828Z,98409.95
2023-02-01T12:56:38.223Z,98413.64
2023-02-01T12:59:19.419Z,98408.80
2023-02-01T13:02:00.438Z,98408.52
2023-02-01T13:04:37.462Z,98408.44
2023-02-01T13:07:26.708Z,98416.25
2023-02-01T13:10:14.319Z,98415.64
2023-02-01T13:12:55.505Z,98417.64
2023-02-01T13:15:32.431Z,98424.27
2023-02-01T13:18:03.762Z,98422.91
2023-02-01T13:20:36.755Z,98419.27
2023-02-01T13:23:10.703Z,98416.56
2023-02-01T13:25:47.860Z,98421.43
2023-02-01T13:28:24.498Z,98423.06
2023-02-01T13:31:20.145Z,98423.58
2023-02-01T13:34:25.659Z,98429.52
2023-02-01T13:37:27.639Z,98432.39
2023-02-01T13:40:01.586Z,98431.65
2023-02-01T13:42:37.427Z,98438.67
2023-02-01T13:45:21.677Z,98442.23
2023-02-01T13:47:54.361Z,98444.11
2023-02-01T13:50:41.767Z,98434.83
2023-02-01T13:53:12.300Z,98426.21
2023-02-01T13:55:46.016Z,98424.48
2023-02-01T13:58:21.587Z,98431.28
2023-02-01T14:00:54.462Z,98429.65
2023-02-01T14:03:43.847Z,98434.91
2023-02-01T14:06:27.489Z,98432.56
2023-02-01T14:09:11.918Z,98422.46
2023-02-01T14:11:51.514Z,98431.73
2023-02-01T14:14:19.319Z,98427.79
2023-02-01T14:16:53.081Z,98434.06
2023-02-01T14:19:20.831Z,98445.60
2023-02-01T14:21:52.627Z,98432.57
2023-02-01T14:24:27.148Z,98431.42
2023-02-01T14:26:58.373Z,98444.17
2023-02-01T14:29:36.142Z,98438.60
2023-02-01T14:32:21.003Z,98436.55
2023-02-01T14:34:48.951Z,98425.08
2023-02-01T14:37:20.015Z,98435.08
2023-02-01T14:39:47.784Z,98440.94
2023-02-01T14:42:23.181Z,98435.01
2023-02-01T14:44:59.464Z,98448.69
2023-02-01T14:47:31.841Z,98443.11
2023-02-01T14:50:25.297Z,98443.32
2023-02-01T14:53:14.452Z,98438.27
2023-02-01T14:55:56.644Z,98441.19
2023-02-01T14:58:57.169Z,98437.77
2023-02-01T15:01:38.703Z,98432.48
2023-02-01T15:04:19.551Z,98431.93
2023-02-01T15:06:52.465Z,98442.84
2023-02-01T15:09:29.590Z,98440.88
2023-02-01T15:12:26.111Z,98421.42
2023-02-01T15:15:14.668Z,98413.97
2023-02-01T15:17:43.297Z,98417.42
2023-02-01T15:20:17.256Z,98409.11
2023-02-01T15:22:58.499Z,98410.05
2023-02-01T15:25:39.322Z,98415.01
2023-02-01T15:28:14.697Z,98412.98
2023-02-01T15:31:02.869Z,98406.64
2023-02-01T15:33:32.086Z,98411.80
2023-02-01T15:36:19.238Z,98420.47
2023-02-01T15:38:47.049Z,98428.52
2023-02-01T15:41:30.592Z,98428.04
2023-02-01T15:43:58.646Z,98435.16
2023-02-01T15:46:39.271Z,98428.42
2023-02-01T15:49:21.032Z,98424.13
2023-02-01T15:51:49.768Z,98418.26
2023-02-01T15:54:21.414Z,98410.84
2023-02-01T15:56:55.358Z,98405.38
2023-02-01T15:59:29.408Z,98411.63
2023-02-01T16:01:57.647Z,98410.90
2023-02-01T16:04:30.806Z,98403.27
2023-02-01T16:07:05.247Z,98403.48
2023-02-01T16:09:49.674Z,98404.98
2023-02-01T16:12:36.764Z,98397.88
2023-02-01T16:15:05.741Z,98400.75
2023-02-01T16:17:33.789Z,98401.52
2023-02-01T16:20:01.824Z,98411.38
2023-02-01T16:22:29.732Z,98419.06
2023-02-01T16:24:58.049Z,98421.16
2023-02-01T16:27:25.890Z,98421.52
2023-02-01T16:29:56.849Z,98412.30
2023-02-01T16:32:24.987Z,98409.83
2023-02-01T16:34:54.749Z,98404.75
2023-02-01T16:37:24.918Z,98408.31
2023-02-01T16:39:52.828Z,98409.66
2023-02-01T16:42:20.736Z,98402.41
2023-02-01T16:44:48.549Z,98397.98
2023-02-01T16:47:22.466Z,98395.48
2023-02-01T16:49:51.687Z,98385.26
2023-02-01T16:52:25.933Z,98381.48
2023-02-01T16:54:56.751Z,98385.71
2023-02-01T16:57:24.845Z,98387.90
2023-02-01T16:59:52.631Z,98382.26
2023-02-01T17:02:21.857Z,98386.88
2023-02-01T17:04:50.006Z,98375.17
2023-02-01T17:07:19.889Z,98374.99
2023-02-01T17:09:48.475Z,98365.00
2023-02-01T17:12:22.051Z,98362.09
2023-02-01T17:14:51.051Z,98361.23
2023-02-01T17:17:25.757Z,98357.48
2023-02-01T17:20:00.909Z,98361.05
2023-02-01T17:22:28.826Z,98363.98
2023-02-01T17:24:56.647Z,98361.26
2023-02-01T17:27:24.585Z,98355.94
2023-02-01T17:29:54.016Z,98354.81
2023-02-01T17:32:24.333Z,98351.10
2023-02-01T17:34:52.531Z,98351.29
2023-02-01T17:37:26.172Z,98352.09
2023-02-01T17:39:57.284Z,98348.80
2023-02-01T17:42:26.682Z,98343.98
2023-02-01T17:45:01.791Z,98351.30
2023-02-01T17:47:29.704Z,98353.13
2023-02-01T17:49:57.601Z,98353.27
2023-02-01T17:52:26.220Z,98354.80
2023-02-01T17:54:54.353Z,98349.92
2023-02-01T17:57:22.773Z,98348.94
2023-02-01T17:59:50.587Z,98346.45
2023-02-01T18:02:21.442Z,98338.84
2023-02-01T18:04:50.609Z,98336.55
2023-02-01T18:07:18.746Z,98325.52
2023-02-01T18:09:46.623Z,98314.73
2023-02-01T18:12:23.688Z,98302.52
2023-02-01T18:14:51.615Z,98295.67
2023-02-01T18:17:20.135Z,98293.53
2023-02-01T18:19:48.072Z,98284.01
2023-02-01T18:22:19.083Z,98273.70
2023-02-01T18:24:47.041Z,98271.98
2023-02-01T18:27:14.885Z,98267.45
2023-02-01T18:29:42.707Z,98273.30
2023-02-01T18:32:10.962Z,98272.43
2023-02-01T18:34:39.118Z,98273.53
2023-02-01T18:37:07.057Z,98268.36
2023-02-01T18:39:34.878Z,98258.98
2023-02-01T18:42:02.713Z,98264.24
2023-02-01T18:44:30.620Z,98264.14
2023-02-01T18:47:00.600Z,98258.32
2023-02-01T18:49:28.471Z,98259.89
2023-02-01T18:51:56.398Z,98259.55
2023-02-01T18:54:24.846Z,98251.31
2023-02-01T18:56:52.652Z,98257.13
2023-02-01T18:59:20.462Z,98257.08
2023-02-01T19:01:48.439Z,98245.86
2023-02-01T19:04:25.545Z,98237.83
2023-02-01T19:06:53.927Z,98231.11
2023-02-01T19:09:21.817Z,98240.86
2023-02-01T19:11:49.645Z,98224.27
2023-02-01T19:14:17.486Z,98230.18
2023-02-01T19:16:45.301Z,98226.99
2023-02-01T19:19:13.145Z,98226.46
2023-02-01T19:21:41.125Z,98221.94
2023-02-01T19:24:09.091Z,98221.70
2023-02-01T19:26:36.952Z,98220.35
2023-02-01T19:29:05.078Z,98208.48
2023-02-01T19:31:32.987Z,98183.64
2023-02-01T19:34:01.448Z,98208.30
2023-02-01T19:36:29.325Z,98199.70
2023-02-01T19:38:57.166Z,98197.99
2023-02-01T19:41:25.115Z,98199.56
2023-02-01T19:43:52.915Z,98209.98
2023-02-01T19:46:20.765Z,98210.33
2023-02-01T19:48:48.728Z,98198.25
2023-02-01T19:51:16.660Z,98194.57
2023-02-01T19:53:44.752Z,98209.34
2023-02-01T19:56:12.845Z,98218.06
2023-02-01T19:58:40.865Z,98220.89
2023-02-01T20:01:07.874Z,98213.98
2023-02-01T20:03:35.681Z,98213.27
2023-02-01T20:06:03.739Z,98227.15
2023-02-01T20:08:31.819Z,98224.52
2023-02-01T20:10:59.602Z,98231.79
2023-02-01T20:13:27.483Z,98228.52
2023-02-01T20:15:59.522Z,98238.32
2023-02-01T20:18:28.533Z,98241.05
2023-02-01T20:20:58.476Z,98241.80
2023-02-01T20:23:27.643Z,98243.10
2023-02-01T20:26:01.807Z,98243.69
2023-02-01T20:28:30.073Z,98248.86
2023-02-01T20:30:58.328Z,98244.38
2023-02-01T20:33:30.657Z,98246.37
2023-02-01T20:35:58.806Z,98246.86
2023-02-01T20:38:26.810Z,98247.45
2023-02-01T20:41:03.054Z,98245.94
2023-02-01T20:43:31.351Z,98247.91
2023-02-01T20:45:59.543Z,98251.25
2023-02-01T20:48:30.738Z,98249.14
2023-02-01T20:51:00.069Z,98250.79
2023-02-01T20:53:27.994Z,98253.39
2023-02-01T20:55:58.082Z,98256.51
2023-02-01T20:58:26.757Z,98259.94
2023-02-01T21:00:54.596Z,98263.89
2023-02-01T21:03:22.860Z,98272.92
2023-02-01T21:05:53.285Z,98273.73
2023-02-01T21:08:21.705Z,98276.89
2023-02-01T21:11:07.913Z,98289.64
2023-02-01T21:13:42.916Z,98280.36
2023-02-01T21:16:13.860Z,98288.19
2023-02-01T21:18:41.717Z,98295.65
2023-02-01T21:21:12.022Z,98305.42
2023-02-01T21:23:49.526Z,98302.88
2023-02-01T21:26:23.967Z,98302.29
2023-02-01T21:28:54.330Z,98315.40
2023-02-01T21:31:25.651Z,98319.10
2023-02-01T21:33:53.556Z,98322.13
2023-02-01T21:36:21.431Z,98327.77
2023-02-01T21:38:51.596Z,98335.54
2023-02-01T21:41:39.808Z,98335.81
2023-02-01T21:44:08.573Z,98346.34
2023-02-01T21:46:36.500Z,98348.82
2023-02-01T21:49:05.625Z,98349.30
2023-02-01T21:51:37.861Z,98349.83
2023-02-01T21:54:07.171Z,98354.20
2023-02-01T21:56:36.485Z,98358.33
2023-02-01T21:59:04.694Z,98363.73
2023-02-01T22:01:32.945Z,98365.98
2023-02-01T22:04:00.861Z,98369.11
2023-02-01T22:06:31.710Z,98370.77
2023-02-01T22:09:00.571Z,98373.98
2023-02-01T22:11:29.210Z,98375.66
2023-02-01T22:13:57.323Z,98372.62
2023-02-01T22:16:25.368Z,98377.17
2023-02-01T22:18:54.226Z,98382.30
2023-02-01T22:21:24.097Z,98382.33
2023-02-01T22:23:55.926Z,98391.77
2023-02-01T22:26:23.846Z,98394.84
2023-02-01T22:28:52.024Z,98396.85
2023-02-01T22:31:20.606Z,98398.77
2023-02-01T22:33:50.236Z,98403.15
2023-02-01T22:36:18.462Z,98402.05
2023-02-01T22:38:47.645Z,98397.46
2023-02-01T22:41:15.506Z,98400.16
2023-02-01T22:43:44.395Z,98395.04
2023-02-01T22:46:22.828Z,98403.17
2023-02-01T22:48:51.611Z,98405.31
2023-02-01T22:51:22.971Z,98408.84
2023-02-01T22:53:57.133Z,98413.71
2023-02-01T22:56:33.601Z,98408.55
2023-02-01T22:59:04.821Z,98419.95
2023-02-01T23:01:33.521Z,98425.63
2023-02-01T23:04:03.678Z,98423.16
2023-02-01T23:06:33.114Z,98426.04
2023-02-01T23:09:04.397Z,98431.39
2023-02-01T23:11:32.333Z,98426.85
2023-02-01T23:14:00.227Z,98431.88
2023-02-01T23:16:28.107Z,98428.86
2023-02-01T23:18:56.631Z,98432.27
2023-02-01T23:21:25.253Z,98422.36
2023-02-01T23:23:57.434Z,98431.69
2023-02-01T23:26:28.985Z,98433.37
2023-02-01T23:28:58.341Z,98434.71
2023-02-01T23:31:30.523Z,98435.83
2023-02-01T23:34:00.132Z,98436.66
2023-02-01T23:36:29.381Z,98437.60
2023-02-01T23:38:57.513Z,98435.66
2023-02-01T23:41:27.499Z,98429.98
2023-02-01T23:43:58.572Z,98428.96
2023-02-01T23:46:28.366Z,98425.35
2023-02-01T23:48:56.826Z,98426.20
2023-02-01T23:51:25.542Z,98427.20
2023-02-01T23:53:54.306Z,98420.48
2023-02-01T23:56:31.196Z,98422.45
2023-02-01T23:59:01.031Z,98430.50
